Menus déroulants Compteur de la base de données HP du site Dôme acoustique, la conception des enceintes acoustiques : 6 413 943 --- Nombre recherches en cours : 7

image121-4.jpg


Base de données : Les 50 derniers HP entrés ou modifiés

Mise à jour : 29 ortobre 2017


Le choix des données affichées est volontairement limité au strict nécessaire pour commencer à sélectionner un haut-parleur : Fs, VAS et Qts.

En bas de ce chapitre vous avez les sélections a effectuer pour voir les paramètres THIELE et SMALL et les domaines d'utilisation du haut-parleur que vous choisirez.'


Liste des 50 derniers haut-parleurs entrés ou modifiés de la base :

Le dernier HP entré ou modifié est en début de tableau : Ordre inverse.
HP qui vient d'être entré : Date de création = date de modification.
HP qui vient d'être modifié : Date de création < date de modification. La date de création est en orange.
Sauf dans le cas d'une erreur flagrante, la modification ne concerne que la case "Avis" qui passe d'une valeur non renseignée, 0, à une autre valeur.

Choix
HP
Marque Référence Avis Diam
cm
Type Type
calculé
Impédance
normalisée
Fs
Hz
VAS
L
Qts Date de
création
Date de
modification
AUDAX HM210C0 vp Solen 6 21 --- G 8 Ohms 27.90 94.70 0.272 2021-01-14 2021-01-14
CIARE PM160 1 17 --- M 8 Ohms 66.00 17.70 0.304 2021-01-14 2021-01-14
DAVIS 20GRADFR 6 21 --- G 8 Ohms 43.00 55.00 0.466 2021-01-14 2021-01-14
LAVOCE MAF061.50 1 17 --- M 8 Ohms 172.00 2.55 0.498 2021-01-13 2021-01-13
DAYTON PC83-4 2 8 LB BM 4 Ohms 80.10 1.98 0.539 2021-01-13 2021-01-13
MONACOR SP-8/150PRO vp marcddp 6 21 --- BM 8 Ohms 62.02 15.90 0.373 2021-01-12 2021-01-12
SEMPRINI BF350 3 31 LB BM 16 Ohms 56.02 105.54 0.320 2021-01-11 2021-01-11
TANNOY J40EB vp 6 14 LB BM 4 Ohms 70.00 6.80 0.439 2021-01-09 2021-01-09
FOSTEX 10W150 3 25 --- G 8 Ohms 54.40 79.20 0.394 2021-01-09 2021-01-09
DAYTON RS100-4 vp JPP 6 8 LB BM 4 Ohms 92.26 0.87 0.600 2021-01-07 2021-01-07
SEAS C18EN002/A 1 17 COAX BM 8 Ohms 98.00 3.70 0.615 2021-01-07 2021-01-07
TRIANGLE T17FL2 vp 1 3 17 LB G 8 Ohms 59.00 40.00 0.548 2021-01-06 2021-01-06
TRIANGLE T17FL2 vp 2 3 17 LB G 8 Ohms 58.00 40.00 0.500 2021-01-06 2021-01-06
MARKAUDIO CHR-120 1 17 LB G 8 Ohms 34.24 58.89 0.372 2021-01-06 2021-01-06
FAITAL PRO 6FE200 v2020 5 17 --- BM 16 Ohms 120.00 4.20 0.657 2021-01-05 2021-01-05
TAD TL-1603 1 38 --- G 8 Ohms 28.00 304.00 0.342 2008-01-01 2021-01-05
MONACOR SP-250 3 25 --- PLAN 8 Ohms 30.00 155.00 0.906 2021-01-05 2021-01-05
MONACOR SP-8/150PRO vp 6 21 --- BM 8 Ohms 63.33 16.41 0.355 2021-01-03 2021-01-03
DAVIS 13MP5AG 3 12 --- BM 8 Ohms 60.00 6.50 0.336 2020-12-31 2020-12-31
ELECTROVOICE EVM-15L vp 2020 6 38 --- BM 8 Ohms 51.81 210.22 0.273 2020-12-31 2020-12-31
PEERLESS FSL-1830R09-08 1 46 --- G 8 Ohms 32.70 283.11 0.587 2020-12-31 2020-12-31
LII AUDIO CRYSTAL-10 1 25 LB G 8 Ohms 31.50 256.50 0.479 2020-05-15 2020-12-25
SB ACOUSTICS SB34SWPL76-4 v2019 6 31 --- G 4 Ohms 19.00 78.50 0.327 2020-12-23 2020-12-23
DAYTON PA200-8 1 21 --- G 8 Ohms 55.20 26.60 0.471 2020-12-23 2020-12-23
FOCAL 38VX 3 38 CAR G 4 Ohms 22.25 347.00 0.279 2020-12-21 2020-12-21
TANG BAND W5-2143 vp-jpp 6 14 LB BM 8 Ohms 72.20 12.88 0.511 2020-12-18 2020-12-18
RECKHORN D165i 2 17 CAR G 4 Ohms 28.00 17.00 0.303 2020-12-18 2020-12-18
PEERLESS NE265W-04 1 25 --- G 4 Ohms 23.28 72.83 0.294 2013-11-04 2020-12-17
LAVOCE CSF051.21 1 14 COAX BM 8 Ohms 100.00 4.90 0.670 2020-12-16 2020-12-16
AUDIO NIRVANA SUPER 12 FERRITE 1 31 LB G 8 Ohms 37.39 230.52 0.558 2020-12-16 2020-12-16
REALISTIC 40-9101 3 17 --- BM 16 Ohms 43.00 42.00 0.292 2020-12-15 2020-12-15
SUPRAVOX 285 GMF vp deadharo 6 25 --- G 8 Ohms 37.90 263.02 0.278 2020-12-14 2020-12-14
WHARFEDALE D-002 3 25 --- G 8 Ohms 71.26 50.77 0.624 2020-12-14 2020-12-14
TANG BAND W5-2106 1 14 LB G 8 Ohms 60.00 11.69 0.438 2020-12-10 2020-12-10
GOODMANS AXIOM 301 3 31 LB BM 8 Ohms 31.68 310.99 0.215 2008-01-01 2020-12-09
FOCAL PS 165F3 GRAVE 2 17 CAR G 4 Ohms 66.00 10.60 0.858 2020-12-05 2020-12-05
FAITAL PRO 12HX500 1 31 COAX G 8 Ohms 54.00 62.30 0.396 2020-12-03 2020-12-03
FOCAL 8V 412DB 3 21 DB PAV 4 Ohms 30.73 83.40 0.189 2020-12-03 2020-12-03
FOCAL 5V 323 vp 6 14 --- M 8 Ohms 106.63 4.20 0.473 2020-12-01 2020-12-01
AUDAX PR170M0 1 17 --- M 8 Ohms 117.00 5.52 0.511 2008-01-01 2020-11-30
MTX RTX654 2 17 CAR BM 4 Ohms 145.30 2.60 0.829 2020-11-25 2020-11-25
LAVOCE WAF153.02 1 38 --- G 8 Ohms 35.00 244.00 0.261 2020-11-24 2020-11-24
SUPRAVOX 285 GMF vp richard 6 25 LB G 8 Ohms 40.00 108.00 0.298 2020-11-21 2020-11-21
DAYTON ND90-8 1 8 LB G 8 Ohms 70.70 1.77 0.647 2020-11-21 2020-11-21
DYNAVOX LW6004PMR-N 1 17 --- G 8 Ohms 53.45 11.76 0.525 2020-11-19 2020-11-19
AUDAX HM210Z0 vp 6 21 --- G 8 Ohms 39.00 68.00 0.460 2020-11-19 2020-11-19
SCAN SPEAK 38WE/8582T00 1 38 --- G 8 Ohms 26.00 423.00 0.243 2020-11-19 2020-11-19
AUDAX BMH405 (MHD17B25R2CP12) 3 17 --- G 8 Ohms 31.00 35.00 0.311 2020-11-15 2020-11-15
EMS SPEAKER B15 MKII 1 38 --- PAV 8 Ohms 19.00 1094.00 0.167 2016-02-15 2020-11-09
EMS SPEAKER B12 3 31 --- PAV 8 Ohms 31.00 227.00 0.168 2016-08-10 2020-11-09


Sélection pour voir les Paramètres THIELE et SMALL et les Domaines d'utilisation du HP

Notez que le séparateur décimal est le point, et non pas la virgule, dans toute la base de données.
Si vous devez rentrer 0.65 Ohms dans la case résistance du filtre passif, vous entrez : zéro, point, six, cinq.'

Sélectionnez le HP souhaité en cliquant dans le rond devant le numéro du haut-parleur.


Température en °C (de 0 à 50°C) :
Altitude en m (de -300 à +4000 m) :
% Humidité relative en % (de 0 à 100%) :
Facteur d'amortissement de l'ampli (Infini si >=400) :
Résistance du filtre passif :
Nombre, montage et branchement :
Type de l'enceinte :
Données T&S :
Cas d'emploi :
Variantes de l'enceinte Bass-reflex :


navigation_bdhp.jpg


Valid HTML 4.01 Transitional

Merci pour votre visite.


Dôme acoustique : La conception des enceintes acoustiques.


Il y a un savoir vivre élémentaire qui consiste à demanderl'autorisation avant de reprendre tout ou partie de ce qui est écrit dans ce chapitre.
Je vous donnerai l'accord, demandez-le simplement pour être en règle. Sont exclus les demandes extravagantes.